Three Notch, Alabama
Current Conditions -  °F | °C
As of 7:04 AM on Tuesday 21 Oct 2014 (Local Time) from KEUF Reporting Station
Haze Haze  
Wind Chill: 46°   Ceiling: Unl
Heat Index: 46°   Visibility: 3mi
Dew Point: 45°   Wind: 0mph
Humidity: 93%   Direction: NA
Pressure: 30.02"   Gusts: NA
Location:  32.1076°N, 85.5256°W
Report Text: KEUF 211204Z AUTO 00000KT 3SM BR CLR 08/07 A3002 RMK AO2
Loading
Personal Weather Stations






























Interactive Weather Map New forecast layout! Learn more

10-Day Weather Forecast

Advertisements
Track Severe Weather on mobile